LFGJ/DLE METAR and TAF weather

Enter ICAO airport designator
Station Type Date Time Source
LFGJ METAR 2020/09/20 15:30 UTC NOAA

LFGJ 201530Z AUTO 22008KT CAVOK 24/17 Q1014 TEMPO SCT030TCU


Station Type Date Time Source
LFGJ Decoded METAR 2020/09/20 15:30 UTC NOAA

Dole Tavaux, France (LFGJ) 47-02-34N 005-26-06E
Sep 20, 2020 - 11:30 AM EDT / 2020.09.20 1530 UTC
Wind: from the SW (220 degrees) at 9 MPH (8 KT):0
Visibility: greater than 7 mile(s):0
Weather: Towering cumulus clouds observed
Temperature: 75 F (24 C)
Dew Point: 62 F (17 C)
Relative Humidity: 64%
Pressure (altimeter): 29.94 in. Hg (1014 hPa)
ob: LFGJ 201530Z AUTO 22008KT CAVOK 24/17 Q1014 TEMPO SCT030TCU
cycle: 15

Station Type Date Time Source
LFGJ TAF 2020/06/22 09:21 UTC NOAA

TAF LFGJ 220800Z 2209/2221 01008KT 9999 FEW035 BKN053
BECMG 2212/2215 CAVOK

Example: see airport list